Time;durP1;ratioP1;P1;durP2;ratioP2;P2;SDS_P1;SDS_P2;PMS_P1;PMS_P2;Temp;Humidity;BMP_temperature;BMP_pressure;BME280_temperature;BME280_humidity;BME280_pressure;Samples;Min_cycle;Max_cycle;Signal;HPM_P1;HPM_P2
2023/05/27 00:01:44;;;;;;;;;3.00;2.00;;;;;23.54;32.19;102386.34;6305046;22;45543;-79
2023/05/27 00:04:09;;;;;;;;;6.25;3.75;;;;;23.47;31.91;102374.63;6304325;22;46049;-79
2023/05/27 00:06:35;;;;;;;;;4.00;4.00;;;;;23.39;32.01;102372.75;6304752;22;45281;-79
2023/05/27 00:09:00;;;;;;;;;4.33;4.00;;;;;23.48;32.59;102387.75;6304790;22;45220;-79
2023/05/27 00:11:27;;;;;;;;;5.00;3.67;;;;;23.39;32.34;102365.59;6305221;22;45224;-78
2023/05/27 00:13:52;;;;;;;;;6.00;3.00;;;;;23.44;32.08;102374.94;6304811;22;46006;-79
2023/05/27 00:16:19;;;;;;;;;5.00;3.33;;;;;23.37;32.47;102372.03;6304850;22;45337;-78
2023/05/27 00:18:45;;;;;;;;;4.67;3.00;;;;;23.38;32.34;102376.38;6304776;22;45240;-79
2023/05/27 00:21:10;;;;;;;;;4.33;3.00;;;;;23.37;32.10;102383.50;6304431;22;45425;-79
2023/05/27 00:23:36;;;;;;;;;5.67;4.00;;;;;23.34;32.79;102367.06;6304257;22;46129;-78
2023/05/27 00:26:01;;;;;;;;;5.67;1.67;;;;;23.29;32.37;102362.19;6304329;22;45224;-79
2023/05/27 00:28:28;;;;;;;;;4.50;2.75;;;;;23.27;32.37;102362.34;6305239;22;45579;-79
2023/05/27 00:30:54;;;;;;;;;4.75;4.25;;;;;23.27;31.96;102361.50;6304402;22;45511;-79
2023/05/27 00:33:21;;;;;;;;;5.75;4.75;;;;;23.14;32.22;102351.25;6304810;22;45308;-79
2023/05/27 00:35:46;;;;;;;;;9.25;5.75;;;;;23.06;32.08;102336.09;6302751;22;45359;-79
2023/05/27 00:38:11;;;;;;;;;2.00;2.00;;;;;23.20;32.10;102363.94;6304530;22;45303;-79
2023/05/27 00:40:39;;;;;;;;;5.00;3.00;;;;;23.18;31.95;102364.09;6304765;22;45450;-79
2023/05/27 00:43:05;;;;;;;;;11.33;4.00;;;;;23.05;32.03;102340.59;6304105;22;46261;-80
2023/05/27 00:45:30;;;;;;;;;6.00;4.00;;;;;23.13;32.31;102362.88;6304246;22;45268;-79
2023/05/27 00:47:56;;;;;;;;;3.00;3.00;;;;;23.10;32.53;102350.75;6304546;22;45264;-79
2023/05/27 00:50:25;;;;;;;;;3.00;2.00;;;;;23.10;32.15;102355.22;6304711;22;45209;-79
2023/05/27 00:52:50;;;;;;;;;4.00;3.00;;;;;23.03;32.26;102347.03;6303677;22;46310;-79
2023/05/27 00:55:17;;;;;;;;;5.75;2.75;;;;;23.06;32.25;102344.88;6306187;22;45311;-78
2023/05/27 00:57:43;;;;;;;;;6.67;3.33;;;;;23.06;31.87;102333.44;6308037;22;45295;-78
2023/05/27 01:00:10;;;;;;;;;6.67;4.33;;;;;22.87;32.04;102306.06;6304970;22;45341;-79
2023/05/27 01:02:36;;;;;;;;;3.33;3.00;;;;;23.02;32.28;102334.72;6303815;22;46935;-78
2023/05/27 01:05:01;;;;;;;;;6.33;4.00;;;;;22.94;32.06;102320.38;6304597;22;45216;-79
2023/05/27 01:07:46;;;;;;;;;4.00;1.67;;;;;22.95;31.80;102337.97;6304118;22;45275;-80
2023/05/27 01:10:25;;;;;;;;;4.00;2.67;;;;;22.87;32.42;102313.19;6304684;22;45447;-78
2023/05/27 01:13:06;;;;;;;;;3.00;3.00;;;;;22.86;31.82;102304.38;6303612;22;47076;-79
2023/05/27 01:15:33;;;;;;;;;4.33;2.00;;;;;22.67;32.34;102262.84;6304684;22;45264;-79
2023/05/27 01:18:02;;;;;;;;;4.33;3.00;;;;;22.94;32.28;102322.22;6310837;22;45173;-78
2023/05/27 01:20:29;;;;;;;;;3.33;3.00;;;;;22.71;32.05;102282.84;6309178;22;45289;-79
2023/05/27 01:22:57;;;;;;;;;6.67;4.00;;;;;22.77;32.44;102290.19;6303676;22;46069;-79
2023/05/27 01:25:23;;;;;;;;;3.33;2.00;;;;;22.78;32.31;102304.28;6304343;22;45186;-80
2023/05/27 01:27:49;;;;;;;;;5.00;3.00;;;;;22.90;31.87;102316.34;6304487;22;45328;-79
2023/05/27 01:30:15;;;;;;;;;3.50;3.00;;;;;22.89;31.89;102305.91;6304517;22;45430;-79
2023/05/27 01:33:08;;;;;;;;;3.67;3.00;;;;;22.88;32.75;102322.78;6305048;22;45329;-79
2023/05/27 01:35:43;;;;;;;;;7.50;5.25;;;;;22.79;32.08;102312.13;6303164;22;45289;-78
2023/05/27 01:38:12;;;;;;;;;4.00;3.00;;;;;22.82;32.08;102322.41;6304438;22;45237;-79
2023/05/27 01:40:40;;;;;;;;;7.00;4.00;;;;;22.80;32.47;102299.66;6304354;22;45406;-78
2023/05/27 01:43:07;;;;;;;;;7.00;5.00;;;;;22.80;32.02;102313.75;6304270;22;45272;-79
2023/05/27 01:45:34;;;;;;;;;6.67;3.00;;;;;22.79;32.52;102298.00;6305451;22;45170;-78
2023/05/27 01:48:00;;;;;;;;;3.67;3.67;;;;;22.72;31.87;102303.06;6305224;22;45400;-79
2023/05/27 01:50:25;;;;;;;;;0.00;0.00;;;;;22.70;32.03;102302.38;6305135;22;45403;-78
2023/05/27 01:52:50;;;;;;;;;4.33;2.00;;;;;22.65;31.98;102308.09;6305032;22;46219;-79
2023/05/27 01:55:17;;;;;;;;;2.67;2.67;;;;;22.72;32.34;102309.22;6304876;22;45273;-80
2023/05/27 01:57:42;;;;;;;;;5.00;4.00;;;;;22.72;32.45;102317.16;6305193;22;45257;-80
2023/05/27 02:00:09;;;;;;;;;3.33;2.00;;;;;22.53;32.05;102288.91;6305547;22;45340;-77
2023/05/27 02:02:34;;;;;;;;;3.00;3.00;;;;;22.46;32.10;102269.25;6304867;22;46975;-79
2023/05/27 02:05:00;;;;;;;;;7.67;3.00;;;;;22.70;31.99;102313.84;6304969;22;45240;-79
2023/05/27 02:07:26;;;;;;;;;6.00;4.00;;;;;22.68;32.14;102315.78;6303433;22;45342;-79
2023/05/27 02:09:52;;;;;;;;;6.00;2.00;;;;;22.68;32.42;102314.94;6305227;22;45411;-79
2023/05/27 02:12:18;;;;;;;;;6.50;4.00;;;;;22.36;31.95;102258.72;6305010;22;46058;-79
2023/05/27 02:14:44;;;;;;;;;4.00;3.00;;;;;22.66;32.26;102303.66;6305185;22;45284;-80
2023/05/27 02:17:11;;;;;;;;;2.33;2.00;;;;;22.63;31.88;102304.78;6307777;22;45322;-79
2023/05/27 02:19:36;;;;;;;;;4.33;4.33;;;;;22.48;32.41;102284.03;6304721;22;45431;-79
2023/05/27 02:22:02;;;;;;;;;6.50;4.75;;;;;22.51;31.98;102285.56;6304592;22;46371;-78
2023/05/27 02:24:27;;;;;;;;;5.25;4.25;;;;;22.61;31.95;102302.25;6304989;22;45323;-79
2023/05/27 02:26:53;;;;;;;;;5.00;5.00;;;;;22.61;32.41;102312.06;6305736;22;45948;-79
2023/05/27 02:29:18;;;;;;;;;5.67;3.00;;;;;22.61;31.92;102296.94;6305355;22;45384;-78
2023/05/27 02:31:43;;;;;;;;;3.00;3.00;;;;;22.46;31.91;102277.22;6304956;22;46092;-79
2023/05/27 02:34:09;;;;;;;;;7.00;2.75;;;;;22.55;32.27;102294.91;6302577;22;47943;-79
2023/05/27 02:36:34;;;;;;;;;6.00;3.67;;;;;22.45;32.18;102268.44;6305187;22;45165;-79
2023/05/27 02:39:00;;;;;;;;;5.00;3.00;;;;;22.44;32.00;102265.94;6305030;22;45150;-80
2023/05/27 02:41:26;;;;;;;;;3.00;3.00;;;;;22.60;32.10;102286.50;6304756;22;46191;-79
2023/05/27 02:43:51;;;;;;;;;5.67;3.00;;;;;22.56;31.78;102279.84;6304818;22;45251;-79
2023/05/27 02:46:17;;;;;;;;;5.33;4.00;;;;;22.59;31.66;102284.81;6304839;22;45332;-79
2023/05/27 02:48:42;;;;;;;;;3.33;3.00;;;;;22.45;31.65;102257.00;6305284;22;45204;-79
2023/05/27 02:51:07;;;;;;;;;4.00;4.00;;;;;22.55;32.17;102279.00;6305254;22;45962;-77
2023/05/27 02:53:32;;;;;;;;;3.75;2.00;;;;;22.59;31.65;102287.47;6305226;22;45244;-80
2023/05/27 02:55:58;;;;;;;;;5.50;3.00;;;;;22.58;32.07;102276.03;6305063;22;45242;-78
2023/05/27 02:58:23;;;;;;;;;6.50;3.25;;;;;22.56;31.58;102278.00;6305517;22;45233;-78
2023/05/27 03:00:48;;;;;;;;;3.33;3.00;;;;;22.56;32.03;102283.28;6304910;22;45886;-79
2023/05/27 03:03:14;;;;;;;;;3.50;3.00;;;;;22.56;32.10;102287.78;6304468;22;50275;-79
2023/05/27 03:05:39;;;;;;;;;4.50;3.00;;;;;22.49;31.68;102280.41;6304890;22;45321;-79
2023/05/27 03:08:06;;;;;;;;;7.25;4.50;;;;;22.52;32.14;102281.94;6305043;22;45445;-79
2023/05/27 03:10:32;;;;;;;;;6.00;4.00;;;;;22.51;31.66;102281.09;6305229;22;45965;-80
2023/05/27 03:12:57;;;;;;;;;5.50;4.00;;;;;22.51;32.03;102280.25;6305169;22;45320;-79
2023/05/27 03:15:23;;;;;;;;;6.75;2.75;;;;;22.49;31.66;102279.56;6304850;22;45516;-80
2023/05/27 03:17:48;;;;;;;;;3.33;3.33;;;;;22.47;32.08;102278.91;6304597;22;45280;-78
2023/05/27 03:20:14;;;;;;;;;4.75;4.00;;;;;22.32;32.11;102252.88;6305118;22;45419;-80
2023/05/27 03:22:39;;;;;;;;;4.33;3.00;;;;;22.34;31.62;102260.69;6304985;22;45270;-80
2023/05/27 03:25:05;;;;;;;;;4.00;2.33;;;;;22.43;32.00;102275.69;6303362;22;45313;-80
2023/05/27 03:27:31;;;;;;;;;3.00;2.00;;;;;22.44;31.95;102281.84;6305319;22;45226;-79
2023/05/27 03:29:56;;;;;;;;;4.00;3.00;;;;;22.24;31.60;102245.66;6302971;22;45984;-79
2023/05/27 03:32:21;;;;;;;;;4.00;3.00;;;;;22.43;31.97;102277.53;6304701;22;45243;-79
2023/05/27 03:34:47;;;;;;;;;5.50;3.75;;;;;22.43;32.15;102274.88;6303334;22;45238;-80
2023/05/27 03:37:13;;;;;;;;;3.25;3.25;;;;;22.41;31.86;102275.00;6305184;22;45228;-79
2023/05/27 03:39:39;;;;;;;;;2.75;2.75;;;;;22.42;31.64;102273.19;6304617;22;45665;-79
2023/05/27 03:42:05;;;;;;;;;3.00;3.00;;;;;22.41;31.68;102261.75;6304491;22;45682;-79
2023/05/27 03:44:31;;;;;;;;;6.33;3.33;;;;;22.23;31.95;102244.00;6305012;22;45387;-79
2023/05/27 03:46:57;;;;;;;;;2.67;2.67;;;;;22.32;31.76;102254.69;6304163;22;45502;-79
2023/05/27 03:49:22;;;;;;;;;6.50;4.25;;;;;22.37;31.80;102268.34;6304424;22;47000;-79
2023/05/27 03:51:48;;;;;;;;;5.00;3.33;;;;;22.31;31.89;102259.16;6304442;22;45308;-79
2023/05/27 03:54:13;;;;;;;;;5.00;5.00;;;;;22.34;31.68;102265.97;6304898;22;45268;-80
2023/05/27 03:56:40;;;;;;;;;4.50;4.25;;;;;22.32;31.54;102265.31;6304837;22;45380;-79
2023/05/27 03:59:06;;;;;;;;;4.33;2.67;;;;;22.30;31.68;102262.81;6304733;22;46157;-79
2023/05/27 04:01:32;;;;;;;;;4.75;3.25;;;;;22.30;32.21;102265.47;6304253;22;45111;-80
2023/05/27 04:03:57;;;;;;;;;6.50;4.00;;;;;22.15;32.30;102243.88;6304817;22;45299;-80
2023/05/27 04:06:23;;;;;;;;;3.00;3.00;;;;;22.27;32.09;102255.16;6304067;22;45213;-78
2023/05/27 04:08:48;;;;;;;;;3.75;3.25;;;;;22.31;31.74;102264.47;6303015;22;48182;-79
2023/05/27 04:11:13;;;;;;;;;3.00;2.75;;;;;22.18;32.01;102244.44;6304455;22;45263;-79
2023/05/27 04:13:39;;;;;;;;;8.75;4.25;;;;;22.18;31.71;102244.44;6304686;22;45224;-79
2023/05/27 04:16:05;;;;;;;;;7.50;4.00;;;;;22.12;32.45;102225.66;6304187;22;45446;-79
2023/05/27 04:18:30;;;;;;;;;3.75;2.50;;;;;22.27;32.29;102258.63;6304392;22;46321;-79
2023/05/27 04:20:58;;;;;;;;;10.50;6.00;;;;;22.31;32.20;102258.31;6304791;22;45241;-77
2023/05/27 04:23:23;;;;;;;;;2.25;2.25;;;;;22.26;31.69;102256.13;6304814;22;45250;-79
2023/05/27 04:25:49;;;;;;;;;6.00;5.00;;;;;22.31;31.82;102267.09;6304204;22;45376;-79
2023/05/27 04:28:15;;;;;;;;;3.50;3.50;;;;;22.26;32.07;102254.31;6303915;22;45985;-77
2023/05/27 04:30:41;;;;;;;;;8.00;5.25;;;;;22.09;31.99;102232.06;6304711;22;45248;-79
2023/05/27 04:33:11;;;;;;;;;4.75;4.00;;;;;22.29;32.15;102259.31;6303087;22;45381;-78
2023/05/27 04:35:36;;;;;;;;;6.00;4.50;;;;;22.29;32.23;102264.63;6304583;22;45372;-79
2023/05/27 04:38:01;;;;;;;;;5.00;3.25;;;;;21.98;32.28;102216.34;6303011;22;46949;-79
2023/05/27 04:40:28;;;;;;;;;4.50;4.00;;;;;22.27;31.64;102266.59;6304762;22;45339;-79
2023/05/27 04:42:55;;;;;;;;;5.00;3.00;;;;;22.14;31.67;102244.88;6304066;22;45222;-79
2023/05/27 04:45:20;;;;;;;;;3.75;2.75;;;;;22.25;31.89;102257.91;6304332;22;45404;-79
2023/05/27 04:47:45;;;;;;;;;6.00;3.75;;;;;22.22;32.10;102260.91;6304203;22;51160;-79
2023/05/27 04:50:13;;;;;;;;;5.75;4.00;;;;;22.26;31.65;102266.72;6304187;22;45275;-79
2023/05/27 04:52:41;;;;;;;;;3.67;3.67;;;;;22.08;31.74;102248.94;6304677;22;45288;-78
2023/05/27 04:55:09;;;;;;;;;3.75;3.00;;;;;22.18;32.21;102276.25;6304193;22;45444;-79
2023/05/27 04:57:35;;;;;;;;;2.50;2.25;;;;;22.05;31.79;102249.22;6304021;22;45328;-79
2023/05/27 05:02:35;;;;;;;;;4.50;4.50;;;;;22.05;31.56;102246.59;6304496;22;45372;-79
2023/05/27 05:05:08;;;;;;;;;4.00;4.00;;;;;22.07;31.72;102255.22;6304029;22;45419;-79
2023/05/27 05:07:37;;;;;;;;;6.75;4.00;;;;;22.09;32.11;102252.44;6303803;22;45368;-80
2023/05/27 05:10:04;;;;;;;;;5.00;4.00;;;;;22.20;32.04;102278.75;6303694;22;45233;-78
2023/05/27 05:12:30;;;;;;;;;4.00;4.00;;;;;22.24;31.68;102274.00;6303763;22;45384;-78
2023/05/27 05:14:55;;;;;;;;;6.00;3.00;;;;;22.16;31.72;102256.16;6304511;22;45296;-79
2023/05/27 05:17:23;;;;;;;;;5.50;3.25;;;;;22.30;32.13;102278.72;6304826;22;45794;-81
2023/05/27 05:19:50;;;;;;;;;4.00;3.00;;;;;22.32;31.66;102274.09;6305232;22;45198;-79
2023/05/27 05:22:18;;;;;;;;;5.50;4.00;;;;;22.33;31.94;102277.59;6305899;22;45237;-79
2023/05/27 05:24:44;;;;;;;;;4.75;2.00;;;;;22.34;31.70;102273.94;6305283;22;45417;-79
2023/05/27 05:27:09;;;;;;;;;6.00;4.00;;;;;22.32;31.74;102274.09;6304588;22;47349;-79
2023/05/27 05:29:36;;;;;;;;;5.50;3.50;;;;;22.26;32.07;102267.56;6305939;22;45210;-78
2023/05/27 05:32:02;;;;;;;;;3.50;3.50;;;;;22.31;32.13;102269.75;6305894;22;45332;-79
2023/05/27 05:34:27;;;;;;;;;3.50;2.00;;;;;22.27;31.66;102263.09;6305327;22;45294;-79
2023/05/27 05:36:52;;;;;;;;;3.50;2.50;;;;;22.45;32.13;102283.53;6305516;22;46086;-79
2023/05/27 05:39:18;;;;;;;;;5.75;3.75;;;;;22.35;32.20;102270.31;6305067;22;45304;-79
2023/05/27 05:41:43;;;;;;;;;5.00;4.00;;;;;22.46;32.18;102288.66;6303700;22;45441;-76
2023/05/27 05:44:09;;;;;;;;;6.00;3.75;;;;;22.48;31.74;102283.22;6305402;22;45421;-79
2023/05/27 05:46:34;;;;;;;;;5.50;4.50;;;;;22.50;32.06;102294.50;6305154;22;46683;-79
2023/05/27 05:48:59;;;;;;;;;6.33;4.67;;;;;22.52;31.84;102281.94;6305562;22;45170;-79
2023/05/27 05:51:25;;;;;;;;;5.00;4.00;;;;;22.50;31.97;102273.31;6305265;22;45244;-79
2023/05/27 05:53:50;;;;;;;;;2.50;2.50;;;;;22.45;32.14;102270.25;6305354;22;45466;-79
2023/05/27 05:56:16;;;;;;;;;3.00;3.00;;;;;22.56;32.10;102285.94;6304704;22;46282;-79
2023/05/27 05:58:41;;;;;;;;;3.25;3.00;;;;;22.57;31.55;102284.13;6305785;22;45301;-79
2023/05/27 06:01:07;;;;;;;;;6.75;4.00;;;;;22.56;31.93;102291.25;6305493;22;45294;-79
2023/05/27 06:03:32;;;;;;;;;6.75;5.25;;;;;22.47;32.12;102268.28;6305238;22;45185;-79
2023/05/27 06:05:58;;;;;;;;;3.33;3.33;;;;;22.61;31.90;102293.47;6304693;22;57734;-79
2023/05/27 06:08:24;;;;;;;;;6.00;5.50;;;;;22.48;32.19;102270.78;6305669;22;45312;-79
2023/05/27 06:10:49;;;;;;;;;6.67;3.33;;;;;22.48;31.55;102262.81;6305733;22;45304;-78
2023/05/27 06:13:15;;;;;;;;;5.25;4.00;;;;;22.47;31.91;102263.81;6305806;22;45341;-79
2023/05/27 06:15:41;;;;;;;;;9.00;5.00;;;;;22.63;32.22;102283.56;6305032;22;46306;-79
2023/05/27 06:18:06;;;;;;;;;5.25;4.00;;;;;22.66;32.05;102274.47;6305359;22;45272;-79
2023/05/27 06:20:31;;;;;;;;;6.50;5.00;;;;;22.68;31.63;102267.19;6305186;22;45374;-80
2023/05/27 06:22:56;;;;;;;;;8.25;6.00;;;;;22.69;31.72;102272.31;6305664;22;46744;-79
2023/05/27 06:25:22;;;;;;;;;5.00;3.00;;;;;22.71;31.75;102262.44;6305096;22;46112;-79
2023/05/27 06:27:47;;;;;;;;;2.67;1.33;;;;;22.72;31.96;102265.91;6305821;22;45368;-79
2023/05/27 06:30:13;;;;;;;;;4.75;4.75;;;;;22.73;31.94;102257.81;6304769;22;45306;-78
2023/05/27 06:32:39;;;;;;;;;5.00;4.00;;;;;22.40;31.53;102210.53;6305119;22;45348;-79
2023/05/27 06:35:05;;;;;;;;;5.75;3.00;;;;;22.76;32.04;102264.66;6305039;22;46010;-80
2023/05/27 06:37:30;;;;;;;;;5.33;3.33;;;;;22.77;31.78;102261.00;6304575;22;45107;-79
2023/05/27 06:39:55;;;;;;;;;5.00;4.00;;;;;22.67;31.83;102249.59;6305149;22;45388;-80
2023/05/27 06:42:22;;;;;;;;;9.00;5.25;;;;;22.73;31.85;102260.47;6305284;22;45478;-78
2023/05/27 06:44:48;;;;;;;;;5.00;3.50;;;;;22.79;32.02;102255.56;6304672;22;47179;-79
2023/05/27 06:47:13;;;;;;;;;2.50;2.50;;;;;22.67;31.91;102225.72;6305344;22;45220;-79
2023/05/27 06:49:39;;;;;;;;;4.25;4.00;;;;;22.68;32.05;102227.38;6305555;22;45249;-79
2023/05/27 06:52:05;;;;;;;;;5.00;4.25;;;;;22.85;31.69;102260.25;6305432;22;45294;-78
2023/05/27 06:54:30;;;;;;;;;4.00;3.00;;;;;22.70;31.91;102236.91;6302786;22;47037;-79
2023/05/27 06:56:56;;;;;;;;;6.25;4.00;;;;;22.84;31.46;102254.13;6304525;22;45381;-79
2023/05/27 06:59:21;;;;;;;;;5.00;3.00;;;;;22.85;32.13;102244.31;6303494;22;45389;-78
2023/05/27 07:01:46;;;;;;;;;4.00;3.75;;;;;22.88;31.56;102256.44;6304748;22;45265;-78
2023/05/27 07:04:12;;;;;;;;;5.50;3.00;;;;;22.92;31.54;102248.06;6304571;22;45897;-78
2023/05/27 07:06:38;;;;;;;;;6.50;5.50;;;;;22.95;31.91;102260.19;6304820;22;45405;-78
2023/05/27 07:09:04;;;;;;;;;7.00;6.00;;;;;22.96;31.54;102259.19;6304193;22;48529;-79
2023/05/27 07:11:29;;;;;;;;;5.75;3.75;;;;;22.99;32.07;102253.56;6305250;22;45458;-79
2023/05/27 07:13:55;;;;;;;;;3.33;3.00;;;;;22.87;31.74;102229.09;6304677;22;45280;-78
2023/05/27 07:16:21;;;;;;;;;4.00;3.67;;;;;23.03;31.94;102254.94;6304752;22;45232;-78
2023/05/27 07:18:46;;;;;;;;;7.50;4.50;;;;;22.94;32.12;102232.81;6304886;22;45221;-78
2023/05/27 07:21:11;;;;;;;;;8.33;4.33;;;;;23.05;31.50;102258.28;6304757;22;45229;-79
2023/05/27 07:23:37;;;;;;;;;4.00;4.00;;;;;23.08;31.73;102249.19;6304161;22;46149;-78
2023/05/27 07:26:02;;;;;;;;;5.00;5.00;;;;;23.10;32.21;102249.03;6304490;22;45297;-79
2023/05/27 07:28:27;;;;;;;;;7.00;6.00;;;;;23.09;32.18;102242.03;6305107;22;45275;-77
2023/05/27 07:30:53;;;;;;;;;5.33;4.00;;;;;23.01;31.97;102226.88;6305484;22;45276;-80
2023/05/27 07:33:18;;;;;;;;;5.25;4.00;;;;;22.81;32.04;102192.53;6305168;22;45340;-79
2023/05/27 07:35:44;;;;;;;;;4.33;3.33;;;;;23.12;32.25;102225.81;6304501;22;45301;-79
2023/05/27 07:38:10;;;;;;;;;2.00;2.00;;;;;23.06;32.04;102228.09;6304449;22;45291;-79
2023/05/27 07:40:35;;;;;;;;;5.00;2.67;;;;;23.12;31.80;102226.66;6303938;22;45474;-79
2023/05/27 07:43:01;;;;;;;;;9.50;4.75;;;;;23.17;32.38;102232.31;6304880;22;45974;-79
2023/05/27 07:45:26;;;;;;;;;4.25;4.00;;;;;23.19;32.16;102229.50;6305070;22;45381;-78
2023/05/27 07:47:52;;;;;;;;;5.50;4.25;;;;;22.84;32.07;102171.84;6304755;22;45295;-78
2023/05/27 07:50:17;;;;;;;;;4.50;2.25;;;;;23.16;32.29;102229.84;6304794;22;45327;-78
2023/05/27 07:52:43;;;;;;;;;7.00;4.00;;;;;23.13;32.27;102208.91;6304183;22;45964;-78
2023/05/27 07:55:08;;;;;;;;;5.00;4.00;;;;;23.22;32.04;102218.56;6304960;22;45387;-78
2023/05/27 07:57:34;;;;;;;;;7.25;5.00;;;;;23.23;32.12;102222.06;6305440;22;45359;-78
2023/05/27 07:59:59;;;;;;;;;5.50;4.50;;;;;23.24;31.77;102219.25;6305312;22;45364;-78
2023/05/27 08:02:25;;;;;;;;;4.25;3.25;;;;;23.25;32.17;102218.28;6305238;22;45382;-79
2023/05/27 08:04:51;;;;;;;;;4.75;4.00;;;;;23.26;32.24;102219.13;6305394;22;45286;-79
2023/05/27 08:07:16;;;;;;;;;5.75;4.00;;;;;23.18;32.27;102199.50;6305058;22;45316;-79
2023/05/27 08:09:41;;;;;;;;;6.00;4.67;;;;;23.27;32.37;102197.69;6305267;22;45090;-77
2023/05/27 08:12:07;;;;;;;;;5.67;4.00;;;;;23.29;31.99;102195.72;6304014;22;47010;-79
2023/05/27 08:14:33;;;;;;;;;5.33;3.67;;;;;23.17;31.98;102162.44;6304701;22;45213;-77
2023/05/27 08:16:58;;;;;;;;;7.75;6.00;;;;;23.38;32.17;102180.69;6305241;22;45228;-79
2023/05/27 08:19:23;;;;;;;;;5.33;3.67;;;;;23.54;32.47;102187.09;6305051;22;45325;-80
2023/05/27 08:21:49;;;;;;;;;3.00;2.00;;;;;23.65;33.00;102190.47;6304530;22;46341;-77
2023/05/27 08:24:14;;;;;;;;;4.75;2.25;;;;;23.76;32.79;102184.06;6304369;22;45279;-72
2023/05/27 08:26:40;;;;;;;;;4.33;3.67;;;;;23.76;33.00;102160.97;6304682;22;45272;-76
2023/05/27 08:29:05;;;;;;;;;4.00;4.00;;;;;23.93;33.17;102185.78;6304801;22;45382;-76
2023/05/27 08:31:31;;;;;;;;;5.67;5.00;;;;;24.00;32.78;102174.50;6304821;22;45867;-76
2023/05/27 08:33:56;;;;;;;;;6.67;4.67;;;;;24.12;33.03;102173.22;6304493;22;45235;-76
2023/05/27 08:36:22;;;;;;;;;5.67;5.00;;;;;24.20;33.22;102182.22;6304181;22;45259;-75
2023/05/27 08:38:47;;;;;;;;;3.67;3.67;;;;;24.29;32.91;102174.13;6304475;22;45476;-77
2023/05/27 08:41:14;;;;;;;;;3.67;3.67;;;;;24.36;32.97;102157.50;6302678;22;48008;-75
2023/05/27 08:43:40;;;;;;;;;4.67;3.00;;;;;24.48;32.96;102160.69;6304734;22;45331;-76
2023/05/27 08:46:05;;;;;;;;;8.00;4.00;;;;;24.53;33.39;102145.06;6304271;22;45292;-74
2023/05/27 08:48:31;;;;;;;;;5.00;4.33;;;;;24.59;33.15;102146.22;6304330;22;45486;-79
2023/05/27 08:50:56;;;;;;;;;4.00;4.00;;;;;24.72;33.22;102145.72;6302693;22;45236;-76
2023/05/27 08:53:22;;;;;;;;;3.67;3.67;;;;;24.65;32.89;102118.09;6303128;22;45427;-76
2023/05/27 08:55:51;;;;;;;;;5.67;4.33;;;;;24.63;33.26;102104.97;6304292;22;45265;-78
2023/05/27 08:58:17;;;;;;;;;6.00;3.33;;;;;24.90;33.39;102148.22;6303839;22;45311;-82
2023/05/27 09:00:44;;;;;;;;;4.00;2.67;;;;;24.94;33.24;102138.88;6302909;22;46128;-80
2023/05/27 09:03:09;;;;;;;;;4.00;4.00;;;;;24.98;33.30;102138.53;6303921;22;45254;-78
2023/05/27 09:05:35;;;;;;;;;5.33;4.00;;;;;24.99;32.85;102138.34;6303889;22;45802;-74
2023/05/27 09:08:00;;;;;;;;;9.00;5.00;;;;;24.93;32.77;102117.75;6303967;22;45351;-75
2023/05/27 09:10:39;;;;;;;;;5.00;3.00;;;;;25.01;32.68;102125.72;6304207;22;45224;-76
2023/05/27 09:13:05;;;;;;;;;5.33;4.33;;;;;24.81;32.98;102093.31;6304072;22;45376;-77
2023/05/27 09:15:31;;;;;;;;;4.75;4.75;;;;;25.08;32.51;102128.56;6304176;22;45309;-75
2023/05/27 09:17:57;;;;;;;;;4.67;4.00;;;;;25.10;32.65;102123.91;6304162;22;45442;-74
2023/05/27 09:20:27;;;;;;;;;7.00;5.00;;;;;25.01;32.16;102107.09;6303416;22;47142;-76
2023/05/27 09:23:04;;;;;;;;;6.00;3.67;;;;;24.92;32.49;102095.63;6304369;22;45225;-76
2023/05/27 09:25:29;;;;;;;;;6.00;4.33;;;;;25.12;32.65;102131.72;6302450;22;45419;-76
2023/05/27 09:27:56;;;;;;;;;5.33;4.33;;;;;24.95;32.32;102089.97;6303883;22;45339;-75
2023/05/27 09:30:22;;;;;;;;;4.00;4.00;;;;;25.13;32.74;102125.38;6304320;22;45347;-76
2023/05/27 09:32:48;;;;;;;;;5.00;2.67;;;;;25.06;32.41;102109.25;6303309;22;45728;-75
2023/05/27 09:35:16;;;;;;;;;4.67;3.00;;;;;25.15;32.54;102121.56;6303970;22;45245;-76
2023/05/27 09:37:43;;;;;;;;;5.00;5.00;;;;;25.16;32.45;102115.22;6304369;22;45426;-77
2023/05/27 09:40:10;;;;;;;;;8.33;7.00;;;;;25.18;32.42;102123.88;6303813;22;46370;-76
2023/05/27 09:42:45;;;;;;;;;9.33;4.67;;;;;25.07;32.63;102093.13;6303379;22;45364;-76
2023/05/27 09:45:13;;;;;;;;;7.67;6.00;;;;;25.16;32.09;102109.06;6303866;22;45348;-76
2023/05/27 09:47:48;;;;;;;;;4.67;3.00;;;;;25.16;32.55;102107.22;6304996;22;45420;-77
2023/05/27 09:50:16;;;;;;;;;3.33;3.33;;;;;25.23;32.62;102117.19;6307281;22;46013;-76
2023/05/27 09:52:43;;;;;;;;;5.33;4.33;;;;;25.22;32.56;102111.03;6305095;22;45213;-76
2023/05/27 09:55:14;;;;;;;;;4.67;3.67;;;;;25.15;32.31;102094.94;6304456;22;45580;-76
2023/05/27 09:57:40;;;;;;;;;5.33;5.00;;;;;25.22;32.69;102095.06;6304539;22;45402;-76
2023/05/27 10:00:15;;;;;;;;;5.67;4.00;;;;;25.26;32.80;102093.72;6304780;22;46463;-76
2023/05/27 10:02:48;;;;;;;;;4.00;4.00;;;;;25.23;32.86;102109.22;6303494;22;45209;-76
2023/05/27 10:05:15;;;;;;;;;4.67;3.33;;;;;25.18;32.60;102091.09;6305255;22;45224;-76
2023/05/27 10:07:43;;;;;;;;;6.33;5.00;;;;;25.28;32.65;102106.88;6305642;22;45482;-76
2023/05/27 10:10:14;;;;;;;;;4.00;3.33;;;;;25.14;32.71;102082.59;6305788;22;45196;-76
2023/05/27 10:12:41;;;;;;;;;4.00;4.00;;;;;25.27;33.01;102086.53;6305353;22;45488;-76
2023/05/27 10:15:08;;;;;;;;;6.00;6.00;;;;;25.16;33.05;102075.25;6305432;22;45301;-76
2023/05/27 10:17:58;;;;;;;;;6.00;5.00;;;;;25.28;32.84;102093.53;6305561;22;45335;-77
2023/05/27 10:20:49;;;;;;;;;6.33;6.33;;;;;25.26;32.81;102090.22;6289879;22;47069;-76
2023/05/27 10:23:17;;;;;;;;;5.33;4.00;;;;;25.24;32.72;102079.72;6304960;22;45227;-78
2023/05/27 10:25:48;;;;;;;;;5.33;5.00;;;;;25.24;32.73;102085.06;6305266;22;45288;-76
2023/05/27 10:28:25;;;;;;;;;4.67;4.67;;;;;25.23;32.67;102079.91;6305384;22;45523;-76
2023/05/27 10:30:51;;;;;;;;;7.33;4.00;;;;;25.23;32.85;102085.25;6304702;22;46952;-76
2023/05/27 10:33:28;;;;;;;;;6.00;6.00;;;;;25.23;32.83;102086.06;6305416;22;45328;-77
2023/05/27 10:35:54;;;;;;;;;5.67;3.67;;;;;25.09;32.41;102055.66;6305279;22;45375;-77
2023/05/27 10:38:19;;;;;;;;;5.00;4.67;;;;;25.21;32.50;102082.75;6305358;22;45259;-76
2023/05/27 10:40:46;;;;;;;;;5.33;4.00;;;;;25.22;32.73;102081.75;6305743;22;45209;-77
2023/05/27 10:43:18;;;;;;;;;4.67;4.00;;;;;25.12;32.60;102065.13;6304920;22;45166;-76
2023/05/27 10:45:45;;;;;;;;;7.00;4.33;;;;;25.03;32.72;102048.38;6304763;22;45312;-76
2023/05/27 10:48:19;;;;;;;;;6.67;4.00;;;;;25.09;32.48;102058.31;6305232;22;45465;-78
2023/05/27 10:50:52;;;;;;;;;6.00;5.00;;;;;25.20;32.42;102072.25;6305452;22;45275;-77
2023/05/27 10:53:23;;;;;;;;;6.00;4.67;;;;;25.15;32.70;102065.63;6305207;22;45323;-77
2023/05/27 10:55:52;;;;;;;;;8.00;6.00;;;;;25.14;32.91;102058.63;6304840;22;45389;-76
2023/05/27 10:58:19;;;;;;;;;5.00;4.33;;;;;25.17;32.71;102058.28;6304923;22;45350;-76
2023/05/27 11:00:47;;;;;;;;;5.00;5.00;;;;;25.17;32.97;102063.63;6304188;22;46835;-77
2023/05/27 11:03:23;;;;;;;;;4.33;4.00;;;;;25.05;32.82;102033.88;6304691;22;45207;-76
2023/05/27 11:06:04;;;;;;;;;5.67;5.67;;;;;25.16;32.55;102045.97;6304843;22;45344;-76
2023/05/27 11:08:31;;;;;;;;;7.67;4.00;;;;;25.15;32.59;102039.00;6305101;22;45371;-76
2023/05/27 11:10:58;;;;;;;;;3.33;3.33;;;;;25.14;32.49;102037.31;6304538;22;46675;-76
2023/05/27 11:13:30;;;;;;;;;7.67;6.00;;;;;25.03;32.56;102014.56;6304766;22;45228;-76
2023/05/27 11:15:55;;;;;;;;;9.00;5.00;;;;;25.01;32.67;102023.75;6304796;22;45225;-77
2023/05/27 11:18:21;;;;;;;;;8.00;5.00;;;;;24.96;32.45;102017.06;6304919;22;45424;-76
2023/05/27 11:20:46;;;;;;;;;5.00;5.00;;;;;25.12;32.47;102033.19;6304631;22;46135;-75
2023/05/27 11:23:12;;;;;;;;;8.00;5.00;;;;;24.79;32.96;101980.84;6305061;22;45198;-76
2023/05/27 11:25:44;;;;;;;;;6.67;6.00;;;;;25.10;32.64;102009.41;6304838;22;45233;-76